createdAt,value
2019-03-05T00:01:51.764Z,86.86
2019-03-05T00:04:20.378Z,87.76
2019-03-05T00:06:48.977Z,87.49
2019-03-05T00:09:19.344Z,86.54
2019-03-05T00:11:48.280Z,87.20
2019-03-05T00:14:18.881Z,87.25
2019-03-05T00:16:47.117Z,86.52
2019-03-05T00:19:15.994Z,86.08
2019-03-05T00:21:44.667Z,86.17
2019-03-05T00:24:49.646Z,85.95
2019-03-05T00:27:18.298Z,86.56
2019-03-05T00:29:55.885Z,86.29
2019-03-05T00:32:24.567Z,87.08
2019-03-05T00:35:02.320Z,86.58
2019-03-05T00:37:34.405Z,86.32
2019-03-05T00:40:17.881Z,85.50
2019-03-05T00:43:01.503Z,85.99
2019-03-05T00:45:49.842Z,85.44
2019-03-05T00:48:30.260Z,85.41
2019-03-05T00:51:25.101Z,85.86
2019-03-05T00:54:08.753Z,84.91
2019-03-05T00:56:58.764Z,84.49
2019-03-05T00:59:38.720Z,83.95
2019-03-05T01:02:16.374Z,84.44
2019-03-05T01:04:48.082Z,84.11
2019-03-05T01:07:17.031Z,84.59
2019-03-05T01:09:45.660Z,84.72
2019-03-05T01:12:14.961Z,83.86
2019-03-05T01:14:44.080Z,84.85
2019-03-05T01:17:12.739Z,84.55
2019-03-05T01:19:41.367Z,84.99
2019-03-05T01:22:09.878Z,84.67
2019-03-05T01:24:38.541Z,84.65
2019-03-05T01:27:07.125Z,85.29
2019-03-05T01:29:35.809Z,85.91
2019-03-05T01:32:12.052Z,85.73
2019-03-05T01:34:42.249Z,87.29
2019-03-05T01:37:10.937Z,87.27
2019-03-05T01:39:41.146Z,87.58
2019-03-05T01:42:09.650Z,88.09
2019-03-05T01:44:38.238Z,87.66
2019-03-05T01:47:06.888Z,87.51
2019-03-05T01:49:35.466Z,88.09
2019-03-05T01:52:03.951Z,89.08
2019-03-05T01:54:32.477Z,88.91
2019-03-05T01:57:00.961Z,89.75
2019-03-05T01:59:29.631Z,89.81
2019-03-05T02:01:58.223Z,89.76
2019-03-05T02:04:26.844Z,89.59
2019-03-05T02:06:55.347Z,90.35
2019-03-05T02:09:24.275Z,90.31
2019-03-05T02:11:52.937Z,90.38
2019-03-05T02:14:21.653Z,91.41
2019-03-05T02:16:50.240Z,91.41
2019-03-05T02:19:36.447Z,91.90
2019-03-05T02:22:11.093Z,91.96
2019-03-05T02:24:59.446Z,91.65
2019-03-05T02:27:47.727Z,92.57
2019-03-05T02:30:28.296Z,93.07
2019-03-05T02:33:02.908Z,93.63
2019-03-05T02:35:39.856Z,94.92
2019-03-05T02:38:30.569Z,95.01
2019-03-05T02:41:04.983Z,95.31
2019-03-05T02:43:48.672Z,95.52
2019-03-05T02:46:35.673Z,96.03
2019-03-05T02:49:37.703Z,96.78
2019-03-05T02:52:12.165Z,97.57
2019-03-05T02:54:52.711Z,97.56
2019-03-05T02:57:20.358Z,97.68
2019-03-05T02:59:48.904Z,98.38
2019-03-05T03:02:21.919Z,97.89
2019-03-05T03:04:55.200Z,98.45
2019-03-05T03:07:23.862Z,98.36
2019-03-05T03:09:56.047Z,98.26
2019-03-05T03:12:24.996Z,98.77
2019-03-05T03:14:53.516Z,98.36
2019-03-05T03:17:22.051Z,97.63
2019-03-05T03:19:50.588Z,97.79
2019-03-05T03:22:19.134Z,97.39
2019-03-05T03:24:47.631Z,97.18
2019-03-05T03:27:16.265Z,96.89
2019-03-05T03:29:44.818Z,97.18
2019-03-05T03:32:13.419Z,96.52
2019-03-05T03:34:42.003Z,96.91
2019-03-05T03:37:10.638Z,96.21
2019-03-05T03:39:39.257Z,95.86
2019-03-05T03:42:07.894Z,96.12
2019-03-05T03:44:36.523Z,95.93
2019-03-05T03:47:05.095Z,95.44
2019-03-05T03:49:33.695Z,95.41
2019-03-05T03:52:02.261Z,95.31
2019-03-05T03:54:30.862Z,96.09
2019-03-05T03:56:59.427Z,95.68
2019-03-05T03:59:28.019Z,96.44
2019-03-05T04:01:56.687Z,96.17
2019-03-05T04:04:25.472Z,96.55
2019-03-05T04:06:54.182Z,97.06
2019-03-05T04:09:23.143Z,97.33
2019-03-05T04:11:51.757Z,97.78
2019-03-05T04:14:20.321Z,98.16
2019-03-05T04:16:48.936Z,99.22
2019-03-05T04:19:19.226Z,98.95
2019-03-05T04:21:47.846Z,99.78
2019-03-05T04:24:17.656Z,100.00
2019-03-05T04:26:46.228Z,100.00
2019-03-05T04:29:14.768Z,100.00
2019-03-05T04:31:43.721Z,100.00
2019-03-05T04:34:12.301Z,100.00
2019-03-05T04:36:40.848Z,100.00
2019-03-05T04:39:11.388Z,100.00
2019-03-05T04:41:40.449Z,100.00
2019-03-05T04:44:09.127Z,100.00
2019-03-05T04:46:37.652Z,100.00
2019-03-05T04:49:20.579Z,100.00
2019-03-05T04:51:59.572Z,100.00
2019-03-05T04:54:28.205Z,100.00
2019-03-05T04:56:56.830Z,100.00
2019-03-05T04:59:25.482Z,100.00
2019-03-05T05:01:54.098Z,100.00
2019-03-05T05:04:22.645Z,100.00
2019-03-05T05:06:51.198Z,100.00
2019-03-05T05:09:19.800Z,100.00
2019-03-05T05:11:48.389Z,100.00
2019-03-05T05:14:17.048Z,100.00
2019-03-05T05:16:45.651Z,100.00
2019-03-05T05:19:14.417Z,100.00
2019-03-05T05:21:43.044Z,100.00
2019-03-05T05:24:11.691Z,100.00
2019-03-05T05:26:40.309Z,100.00
2019-03-05T05:29:09.553Z,100.00
2019-03-05T05:31:39.038Z,100.00
2019-03-05T05:34:07.668Z,100.00
2019-03-05T05:36:36.263Z,100.00
2019-03-05T05:39:08.115Z,100.00
2019-03-05T05:41:36.725Z,100.00
2019-03-05T05:44:05.374Z,100.00
2019-03-05T05:46:33.978Z,100.00
2019-03-05T05:49:02.539Z,100.00
2019-03-05T05:51:31.249Z,100.00
2019-03-05T05:53:59.820Z,100.00
2019-03-05T05:56:28.415Z,100.00
2019-03-05T05:58:56.935Z,100.00
2019-03-05T06:01:25.777Z,100.00
2019-03-05T06:03:54.366Z,100.00
2019-03-05T06:06:22.978Z,100.00
2019-03-05T06:08:51.536Z,100.00
2019-03-05T06:11:20.077Z,100.00
2019-03-05T06:13:48.787Z,100.00
2019-03-05T06:16:17.326Z,100.00
2019-03-05T06:18:45.976Z,100.00
2019-03-05T06:21:14.575Z,100.00
2019-03-05T06:23:43.322Z,100.00
2019-03-05T06:26:11.967Z,100.00
2019-03-05T06:28:40.703Z,100.00
2019-03-05T06:31:09.212Z,100.00
2019-03-05T06:33:37.780Z,100.00
2019-03-05T06:36:06.906Z,100.00
2019-03-05T06:38:35.551Z,100.00
2019-03-05T06:41:04.156Z,100.00
2019-03-05T06:43:32.843Z,100.00
2019-03-05T06:46:01.363Z,100.00
2019-03-05T06:48:29.902Z,100.00
2019-03-05T06:50:58.406Z,100.00
2019-03-05T06:53:27.359Z,100.00
2019-03-05T06:55:55.865Z,100.00
2019-03-05T06:58:24.455Z,100.00
2019-03-05T07:00:52.970Z,100.00
2019-03-05T07:03:21.535Z,100.00
2019-03-05T07:06:26.443Z,100.00
2019-03-05T07:09:00.866Z,100.00
2019-03-05T07:11:50.419Z,99.54
2019-03-05T07:14:49.159Z,98.43
2019-03-05T07:17:26.644Z,97.38
2019-03-05T07:20:22.609Z,96.63
2019-03-05T07:22:56.943Z,96.38
2019-03-05T07:25:25.542Z,96.67
2019-03-05T07:27:54.189Z,95.52
2019-03-05T07:30:22.967Z,95.64
2019-03-05T07:32:51.896Z,94.55
2019-03-05T07:35:21.078Z,93.84
2019-03-05T07:37:49.683Z,93.08
2019-03-05T07:40:18.785Z,91.54
2019-03-05T07:42:47.765Z,92.26
2019-03-05T07:45:16.704Z,92.06
2019-03-05T07:47:45.244Z,91.07
2019-03-05T07:50:14.042Z,91.60
2019-03-05T07:52:42.599Z,91.71
2019-03-05T07:55:14.195Z,90.87
2019-03-05T07:57:43.007Z,90.52
2019-03-05T08:00:17.018Z,90.14
2019-03-05T08:02:45.585Z,89.77
2019-03-05T08:05:15.218Z,89.17
2019-03-05T08:07:44.369Z,88.63
2019-03-05T08:10:16.030Z,87.89
2019-03-05T08:13:11.903Z,87.03
2019-03-05T08:16:11.552Z,86.85
2019-03-05T08:18:40.199Z,85.35
2019-03-05T08:21:09.139Z,86.39
2019-03-05T08:23:37.703Z,86.23
2019-03-05T08:26:06.338Z,86.82
2019-03-05T08:28:34.992Z,86.55
2019-03-05T08:31:03.541Z,86.53
2019-03-05T08:33:32.105Z,85.34
2019-03-05T08:36:00.608Z,85.16
2019-03-05T08:38:29.252Z,85.53
2019-03-05T08:40:57.786Z,84.38
2019-03-05T08:43:26.459Z,85.01
2019-03-05T08:45:55.165Z,84.69
2019-03-05T08:48:23.827Z,85.64
2019-03-05T08:50:52.428Z,85.00
2019-03-05T08:53:21.192Z,83.24
2019-03-05T08:55:49.798Z,83.01
2019-03-05T08:58:18.460Z,82.61
2019-03-05T09:00:48.121Z,83.96
2019-03-05T09:03:16.985Z,83.12
2019-03-05T09:05:45.733Z,83.47
2019-03-05T09:08:14.333Z,82.79
2019-03-05T09:10:42.938Z,82.39
2019-03-05T09:13:11.504Z,81.70
2019-03-05T09:15:41.195Z,80.78
2019-03-05T09:18:09.813Z,80.71
2019-03-05T09:20:38.484Z,82.01
2019-03-05T09:23:07.066Z,80.60
2019-03-05T09:25:35.778Z,80.94
2019-03-05T09:28:07.179Z,79.76
2019-03-05T09:30:34.968Z,79.29
2019-03-05T09:33:03.563Z,78.48
2019-03-05T09:35:32.198Z,79.44
2019-03-05T09:38:00.881Z,79.19
2019-03-05T09:40:33.147Z,77.84
2019-03-05T09:43:01.707Z,77.06
2019-03-05T09:45:30.286Z,78.98
2019-03-05T09:47:59.130Z,78.51
2019-03-05T09:50:27.729Z,78.60
2019-03-05T09:52:56.541Z,78.79
2019-03-05T09:55:27.999Z,79.02
2019-03-05T09:58:07.610Z,80.32
2019-03-05T10:00:29.362Z,80.21
2019-03-05T10:02:58.195Z,80.61
2019-03-05T10:05:27.760Z,79.53
2019-03-05T10:07:56.337Z,79.08
2019-03-05T10:10:27.700Z,79.12
2019-03-05T10:12:58.885Z,78.25
2019-03-05T10:15:28.375Z,76.86
2019-03-05T10:17:57.139Z,76.80
2019-03-05T10:20:28.183Z,76.47
2019-03-05T10:22:57.999Z,75.93
2019-03-05T10:25:27.417Z,74.14
2019-03-05T10:27:56.917Z,73.73
2019-03-05T10:30:27.975Z,73.70
2019-03-05T10:33:00.026Z,73.48
2019-03-05T10:35:28.740Z,73.44
2019-03-05T10:37:59.494Z,73.63
2019-03-05T10:40:34.301Z,73.31
2019-03-05T10:43:08.802Z,71.45
2019-03-05T10:45:35.487Z,72.36
2019-03-05T10:48:04.507Z,71.45
2019-03-05T10:50:33.352Z,72.87
2019-03-05T10:53:02.442Z,73.40
2019-03-05T10:55:31.472Z,72.69
2019-03-05T10:58:00.208Z,73.16
2019-03-05T11:00:40.534Z,74.82
2019-03-05T11:03:09.252Z,75.30
2019-03-05T11:05:38.306Z,75.25
2019-03-05T11:08:07.510Z,74.71
2019-03-05T11:10:36.271Z,76.30
2019-03-05T11:13:04.911Z,73.76
2019-03-05T11:15:35.113Z,73.28
2019-03-05T11:18:08.466Z,73.55
2019-03-05T11:20:38.082Z,73.51
2019-03-05T11:23:07.561Z,74.97
2019-03-05T11:25:36.232Z,76.25
2019-03-05T11:28:05.132Z,73.84
2019-03-05T11:30:37.115Z,72.32
2019-03-05T11:33:06.249Z,71.46
2019-03-05T11:35:35.760Z,71.53
2019-03-05T11:38:04.604Z,72.17
2019-03-05T11:40:33.199Z,72.12
2019-03-05T11:43:10.443Z,71.76
2019-03-05T11:45:39.922Z,71.85
2019-03-05T11:48:09.221Z,71.44
2019-03-05T11:50:37.851Z,72.60
2019-03-05T11:53:06.456Z,72.11
2019-03-05T11:55:35.053Z,71.80
2019-03-05T11:58:03.620Z,71.30
2019-03-05T12:00:50.513Z,72.50
2019-03-05T12:03:19.035Z,73.22
2019-03-05T12:05:47.559Z,73.39
2019-03-05T12:08:16.141Z,74.56
2019-03-05T12:10:44.673Z,75.27
2019-03-05T12:13:14.618Z,74.85
2019-03-05T12:15:45.758Z,75.48
2019-03-05T12:18:14.328Z,80.63
2019-03-05T12:20:43.048Z,79.76
2019-03-05T12:23:12.003Z,79.22
2019-03-05T12:25:41.407Z,79.67
2019-03-05T12:28:11.367Z,79.35
2019-03-05T12:30:40.341Z,81.33
2019-03-05T12:33:09.002Z,80.92
2019-03-05T12:35:37.590Z,82.82
2019-03-05T12:38:06.140Z,81.83
2019-03-05T12:40:34.922Z,81.08
2019-03-05T12:43:04.050Z,77.46
2019-03-05T12:45:32.693Z,69.69
2019-03-05T12:48:01.267Z,65.40
2019-03-05T12:50:31.346Z,64.92
2019-03-05T12:53:00.204Z,58.59
2019-03-05T12:55:28.814Z,62.59
2019-03-05T12:57:57.522Z,68.83
2019-03-05T13:00:34.294Z,71.40
2019-03-05T13:03:03.386Z,71.74
2019-03-05T13:05:32.093Z,74.69
2019-03-05T13:08:01.017Z,76.19
2019-03-05T13:10:36.060Z,77.98
2019-03-05T13:13:04.596Z,80.02
2019-03-05T13:15:39.123Z,80.17
2019-03-05T13:18:07.756Z,76.94
2019-03-05T13:20:36.384Z,71.20
2019-03-05T13:23:09.595Z,65.13
2019-03-05T13:25:38.132Z,49.14
2019-03-05T13:28:05.987Z,43.17
2019-03-05T13:30:35.064Z,44.97
2019-03-05T13:33:03.658Z,43.75
2019-03-05T13:35:32.431Z,38.98
2019-03-05T13:38:06.866Z,35.50
2019-03-05T13:40:34.168Z,37.02
2019-03-05T13:43:03.514Z,43.86
2019-03-05T13:45:32.170Z,53.58
2019-03-05T13:48:14.752Z,62.45
2019-03-05T13:50:49.530Z,66.74
2019-03-05T13:53:43.955Z,69.29
2019-03-05T13:56:21.623Z,71.48
2019-03-05T13:59:02.340Z,72.65
2019-03-05T14:01:31.361Z,75.50
2019-03-05T14:04:08.438Z,76.77
2019-03-05T14:06:43.035Z,79.69
2019-03-05T14:09:14.225Z,81.37
2019-03-05T14:11:44.586Z,83.52
2019-03-05T14:14:16.566Z,83.75
2019-03-05T14:16:46.077Z,85.19
2019-03-05T14:19:14.797Z,84.00
2019-03-05T14:21:43.826Z,83.01
2019-03-05T14:24:12.483Z,80.95
2019-03-05T14:26:41.276Z,79.35
2019-03-05T14:29:09.993Z,78.45
2019-03-05T14:31:38.574Z,78.07
2019-03-05T14:34:07.249Z,79.14
2019-03-05T14:36:35.955Z,77.93
2019-03-05T14:39:09.448Z,76.82
2019-03-05T14:41:38.514Z,75.02
2019-03-05T14:44:07.615Z,75.30
2019-03-05T14:46:36.983Z,72.39
2019-03-05T14:49:05.904Z,73.21
2019-03-05T14:51:34.496Z,74.35
2019-03-05T14:54:03.095Z,73.15
2019-03-05T14:56:32.179Z,71.96
2019-03-05T14:59:00.833Z,73.44
2019-03-05T15:01:30.921Z,73.31
2019-03-05T15:03:59.479Z,73.44
2019-03-05T15:06:28.231Z,73.03
2019-03-05T15:08:57.030Z,73.67
2019-03-05T15:11:26.042Z,74.74
2019-03-05T15:13:54.728Z,76.28
2019-03-05T15:16:23.485Z,77.64
2019-03-05T15:18:52.049Z,78.75
2019-03-05T15:21:21.108Z,79.59
2019-03-05T15:23:49.699Z,81.48
2019-03-05T15:26:18.714Z,81.72
2019-03-05T15:28:56.094Z,83.31
2019-03-05T15:31:18.791Z,87.66
2019-03-05T15:33:47.400Z,89.68
2019-03-05T15:36:23.724Z,91.92
2019-03-05T15:38:46.390Z,95.15
2019-03-05T15:41:15.383Z,100.00
2019-03-05T15:43:44.420Z,99.90
2019-03-05T15:46:13.881Z,98.13
2019-03-05T15:48:42.677Z,96.60
2019-03-05T15:51:12.429Z,95.54
2019-03-05T15:53:41.558Z,91.87
2019-03-05T15:56:10.176Z,91.79
2019-03-05T15:58:39.210Z,89.61
2019-03-05T16:01:09.912Z,89.66
2019-03-05T16:03:39.192Z,88.69
2019-03-05T16:06:08.146Z,88.65
2019-03-05T16:08:37.143Z,88.85
2019-03-05T16:11:05.929Z,90.59
2019-03-05T16:13:34.811Z,89.20
2019-03-05T16:16:03.696Z,88.68
2019-03-05T16:18:32.625Z,90.03
2019-03-05T16:21:02.427Z,89.75
2019-03-05T16:23:31.626Z,89.45
2019-03-05T16:26:00.814Z,90.14
2019-03-05T16:28:29.975Z,94.29
2019-03-05T16:31:00.367Z,100.00
2019-03-05T16:33:39.739Z,100.00
2019-03-05T16:36:15.997Z,100.00
2019-03-05T16:39:02.776Z,100.00
2019-03-05T16:41:38.832Z,100.00
2019-03-05T16:44:21.917Z,100.00
2019-03-05T16:46:52.629Z,100.00
2019-03-05T16:49:32.278Z,100.00
2019-03-05T16:52:19.205Z,100.00
2019-03-05T16:55:07.244Z,100.00
2019-03-05T16:57:37.573Z,100.00
2019-03-05T17:00:15.990Z,100.00
2019-03-05T17:02:46.299Z,100.00
2019-03-05T17:05:38.437Z,100.00
2019-03-05T17:08:14.903Z,100.00
2019-03-05T17:10:45.521Z,100.00
2019-03-05T17:13:15.209Z,100.00
2019-03-05T17:15:43.863Z,100.00
2019-03-05T17:18:12.511Z,100.00
2019-03-05T17:20:41.535Z,100.00
2019-03-05T17:23:11.013Z,100.00
2019-03-05T17:25:39.773Z,100.00
2019-03-05T17:28:09.231Z,100.00
2019-03-05T17:30:38.931Z,100.00
2019-03-05T17:33:08.228Z,100.00
2019-03-05T17:35:37.333Z,100.00
2019-03-05T17:38:06.408Z,100.00
2019-03-05T17:40:35.132Z,100.00
2019-03-05T17:43:03.978Z,100.00
2019-03-05T17:45:33.210Z,100.00
2019-03-05T17:48:01.867Z,100.00
2019-03-05T17:50:31.221Z,100.00
2019-03-05T17:53:01.235Z,100.00
2019-03-05T17:55:30.363Z,100.00
2019-03-05T17:57:59.261Z,100.00
2019-03-05T18:00:30.314Z,100.00
2019-03-05T18:02:58.858Z,100.00
2019-03-05T18:05:27.582Z,100.00
2019-03-05T18:07:58.855Z,100.00
2019-03-05T18:10:27.881Z,100.00
2019-03-05T18:12:56.753Z,100.00
2019-03-05T18:15:26.421Z,100.00
2019-03-05T18:17:55.143Z,100.00
2019-03-05T18:20:25.235Z,100.00
2019-03-05T18:22:54.019Z,100.00
2019-03-05T18:25:22.846Z,100.00
2019-03-05T18:27:51.452Z,100.00
2019-03-05T18:30:25.710Z,100.00
2019-03-05T18:32:56.027Z,100.00
2019-03-05T18:35:24.651Z,100.00
2019-03-05T18:37:54.345Z,100.00
2019-03-05T18:40:24.716Z,100.00
2019-03-05T18:42:54.000Z,100.00
2019-03-05T18:45:28.147Z,100.00
2019-03-05T18:47:57.352Z,100.00
2019-03-05T18:50:28.289Z,100.00
2019-03-05T18:52:59.736Z,100.00
2019-03-05T18:55:28.797Z,100.00
2019-03-05T18:57:58.289Z,100.00
2019-03-05T19:00:29.640Z,100.00
2019-03-05T19:03:05.399Z,100.00
2019-03-05T19:05:35.767Z,100.00
2019-03-05T19:08:06.211Z,100.00
2019-03-05T19:10:35.077Z,100.00
2019-03-05T19:13:04.669Z,100.00
2019-03-05T19:15:33.785Z,100.00
2019-03-05T19:18:03.643Z,100.00
2019-03-05T19:20:33.942Z,100.00
2019-03-05T19:23:03.285Z,100.00
2019-03-05T19:25:39.927Z,100.00
2019-03-05T19:28:08.927Z,100.00
2019-03-05T19:30:51.640Z,100.00
2019-03-05T19:33:20.376Z,100.00
2019-03-05T19:35:49.018Z,100.00
2019-03-05T19:38:20.232Z,100.00
2019-03-05T19:40:49.253Z,100.00
2019-03-05T19:43:18.254Z,100.00
2019-03-05T19:45:46.915Z,100.00
2019-03-05T19:48:15.800Z,100.00
2019-03-05T19:50:44.798Z,100.00
2019-03-05T19:53:15.017Z,100.00
2019-03-05T19:55:44.328Z,100.00
2019-03-05T19:58:15.133Z,100.00
2019-03-05T20:00:56.209Z,100.00
2019-03-05T20:03:25.000Z,100.00
2019-03-05T20:05:54.057Z,100.00
2019-03-05T20:08:23.291Z,100.00
2019-03-05T20:10:53.116Z,100.00
2019-03-05T20:13:21.913Z,100.00
2019-03-05T20:15:50.593Z,100.00
2019-03-05T20:18:19.275Z,100.00
2019-03-05T20:20:48.299Z,100.00
2019-03-05T20:23:17.005Z,100.00
2019-03-05T20:25:45.633Z,100.00
2019-03-05T20:28:14.304Z,100.00
2019-03-05T20:30:43.646Z,100.00
2019-03-05T20:33:13.745Z,100.00
2019-03-05T20:35:43.083Z,100.00
2019-03-05T20:38:11.721Z,100.00
2019-03-05T20:40:41.986Z,100.00
2019-03-05T20:43:10.916Z,100.00
2019-03-05T20:45:45.364Z,100.00
2019-03-05T20:48:14.936Z,100.00
2019-03-05T20:50:43.646Z,100.00
2019-03-05T20:53:12.489Z,100.00
2019-03-05T20:55:41.173Z,100.00
2019-03-05T20:58:09.861Z,100.00
2019-03-05T21:00:40.200Z,100.00
2019-03-05T21:03:10.780Z,100.00
2019-03-05T21:05:41.593Z,100.00
2019-03-05T21:08:11.500Z,100.00
2019-03-05T21:10:40.411Z,100.00
2019-03-05T21:13:10.491Z,100.00
2019-03-05T21:15:39.225Z,100.00
2019-03-05T21:18:13.171Z,100.00
2019-03-05T21:20:42.044Z,100.00
2019-03-05T21:23:10.837Z,100.00
2019-03-05T21:25:39.624Z,100.00
2019-03-05T21:28:08.307Z,100.00
2019-03-05T21:30:37.386Z,100.00
2019-03-05T21:33:06.345Z,100.00
2019-03-05T21:35:34.991Z,100.00
2019-03-05T21:38:03.944Z,100.00
2019-03-05T21:40:34.141Z,100.00
2019-03-05T21:43:02.894Z,100.00
2019-03-05T21:45:45.772Z,100.00
2019-03-05T21:48:14.514Z,100.00
2019-03-05T21:50:43.166Z,100.00
2019-03-05T21:53:12.306Z,100.00
2019-03-05T21:55:41.278Z,100.00
2019-03-05T21:58:10.264Z,100.00
2019-03-05T22:00:40.921Z,100.00
2019-03-05T22:03:09.504Z,100.00
2019-03-05T22:05:38.171Z,100.00
2019-03-05T22:08:06.763Z,100.00
2019-03-05T22:10:35.702Z,100.00
2019-03-05T22:13:04.712Z,100.00
2019-03-05T22:15:34.842Z,100.00
2019-03-05T22:18:03.560Z,100.00
2019-03-05T22:20:32.135Z,100.00
2019-03-05T22:23:00.988Z,100.00
2019-03-05T22:25:30.112Z,100.00
2019-03-05T22:27:59.085Z,100.00
2019-03-05T22:30:40.044Z,100.00
2019-03-05T22:33:08.916Z,100.00
2019-03-05T22:35:37.467Z,100.00
2019-03-05T22:38:06.189Z,100.00
2019-03-05T22:40:34.748Z,100.00
2019-03-05T22:43:03.361Z,100.00
2019-03-05T22:45:36.037Z,100.00
2019-03-05T22:48:04.735Z,100.00
2019-03-05T22:50:33.318Z,100.00
2019-03-05T22:53:01.935Z,100.00
2019-03-05T22:55:30.542Z,100.00
2019-03-05T22:57:59.288Z,100.00
2019-03-05T23:00:52.012Z,100.00
2019-03-05T23:03:23.765Z,100.00
2019-03-05T23:05:52.770Z,100.00
2019-03-05T23:08:22.340Z,100.00
2019-03-05T23:10:51.128Z,100.00
2019-03-05T23:13:20.082Z,100.00
2019-03-05T23:15:48.942Z,100.00
2019-03-05T23:18:17.737Z,100.00
2019-03-05T23:20:46.569Z,100.00
2019-03-05T23:23:15.267Z,100.00
2019-03-05T23:25:44.343Z,100.00
2019-03-05T23:28:13.018Z,100.00
2019-03-05T23:30:41.891Z,100.00
2019-03-05T23:33:10.557Z,100.00
2019-03-05T23:35:40.106Z,100.00
2019-03-05T23:38:08.695Z,100.00
2019-03-05T23:40:37.264Z,100.00
2019-03-05T23:43:06.237Z,100.00
2019-03-05T23:45:35.311Z,100.00
2019-03-05T23:48:04.043Z,100.00
2019-03-05T23:50:32.639Z,100.00
2019-03-05T23:53:01.332Z,100.00
2019-03-05T23:55:30.204Z,100.00
2019-03-05T23:57:58.913Z,100.00
